Time;durP1;ratioP1;P1;durP2;ratioP2;P2;SDS_P1;SDS_P2;PMS_P1;PMS_P2;Temp;Humidity;BMP_temperature;BMP_pressure;BME280_temperature;BME280_humidity;BME280_pressure;Samples;Min_cycle;Max_cycle;Signal;HPM_P1;HPM_P2
2023/02/24 00:01:17;;;;;;;;;9.75;8.75;;;;;22.82;36.48;100784.63;5068771;28;45410;-72
2023/02/24 00:03:43;;;;;;;;;9.50;8.00;;;;;22.78;36.95;100780.50;5057129;28;45379;-73
2023/02/24 00:06:10;;;;;;;;;15.00;12.75;;;;;22.79;36.56;100791.06;5069741;27;45358;-72
2023/02/24 00:08:40;;;;;;;;;10.25;8.00;;;;;22.77;36.70;100787.66;5080423;27;45559;-73
2023/02/24 00:11:08;;;;;;;;;9.00;8.25;;;;;22.78;36.94;100789.34;5065436;27;45468;-73
2023/02/24 00:13:34;;;;;;;;;9.50;8.00;;;;;22.74;36.83;100774.56;5072284;28;47141;-73
2023/02/24 00:16:01;;;;;;;;;12.00;8.75;;;;;22.77;37.17;100777.00;5069076;28;45552;-73
2023/02/24 00:18:27;;;;;;;;;12.50;9.50;;;;;22.72;37.09;100772.00;5064839;27;46166;-73
2023/02/24 00:20:55;;;;;;;;;11.75;10.25;;;;;22.72;36.72;100777.34;5071129;27;45492;-73
2023/02/24 00:23:22;;;;;;;;;9.50;8.25;;;;;22.67;36.58;100768.00;5060817;28;45509;-73
2023/02/24 00:25:48;;;;;;;;;9.00;7.00;;;;;22.67;36.58;100768.84;5069033;28;45569;-73
2023/02/24 00:28:14;;;;;;;;;10.50;9.50;;;;;22.65;36.76;100764.59;5048780;28;47292;-72
2023/02/24 00:30:39;;;;;;;;;12.50;8.75;;;;;22.69;36.64;100766.06;5062645;28;59565;-73
2023/02/24 00:33:05;;;;;;;;;12.75;9.25;;;;;22.67;36.82;100773.34;5069606;28;45385;-73
2023/02/24 00:35:31;;;;;;;;;11.00;7.25;;;;;22.65;36.88;100767.28;5063814;27;45578;-73
2023/02/24 00:37:56;;;;;;;;;10.50;9.00;;;;;22.58;36.70;100766.88;5068133;28;48087;-73
2023/02/24 00:40:22;;;;;;;;;9.25;7.25;;;;;22.64;37.00;100762.91;5071216;28;45457;-73
2023/02/24 00:42:48;;;;;;;;;11.25;9.00;;;;;22.59;36.68;100760.56;5073695;27;45391;-73
2023/02/24 00:45:15;;;;;;;;;12.25;8.50;;;;;22.53;36.90;100751.22;5068728;28;45496;-73
2023/02/24 00:47:41;;;;;;;;;9.25;7.50;;;;;22.59;36.62;100760.56;5051019;28;47073;-73
2023/02/24 00:50:07;;;;;;;;;13.75;9.75;;;;;22.58;36.62;100760.72;5076571;27;45419;-74
2023/02/24 00:52:33;;;;;;;;;9.50;8.00;;;;;22.58;36.54;100758.06;5075153;28;45584;-74
2023/02/24 00:54:59;;;;;;;;;14.50;9.00;;;;;22.55;36.97;100751.13;5054704;28;45663;-74
2023/02/24 00:57:25;;;;;;;;;11.75;9.50;;;;;22.56;36.69;100755.50;5067578;28;46158;-74
2023/02/24 00:59:53;;;;;;;;;10.75;8.50;;;;;22.54;36.77;100750.28;5077008;27;45444;-74
2023/02/24 01:02:19;;;;;;;;;11.00;8.00;;;;;22.48;36.93;100732.06;5066961;27;45608;-74
2023/02/24 01:04:44;;;;;;;;;11.25;10.50;;;;;22.55;36.97;100743.97;5070908;28;45536;-74
2023/02/24 01:07:11;;;;;;;;;10.25;9.25;;;;;22.55;36.99;100743.13;5073331;28;47523;-73
2023/02/24 01:09:40;;;;;;;;;12.00;10.00;;;;;22.52;37.03;100749.56;5071331;28;45462;-73
2023/02/24 01:14:54;;;;;;;;;9.75;9.00;;;;;22.47;36.92;100735.72;5067667;27;45501;-72
2023/02/24 01:17:20;;;;;;;;;11.25;11.25;;;;;22.50;36.77;100739.94;5072512;27;45346;-72
2023/02/24 01:19:48;;;;;;;;;11.50;10.00;;;;;22.50;37.13;100742.63;5075074;28;45911;-72
2023/02/24 01:22:18;;;;;;;;;16.25;9.75;;;;;22.49;36.92;100733.78;5052881;28;45477;-72
2023/02/24 01:24:44;;;;;;;;;11.50;8.75;;;;;22.45;36.80;100737.66;5067906;28;45543;-72
2023/02/24 01:27:11;;;;;;;;;11.25;9.25;;;;;22.47;36.96;100737.50;5072401;28;45558;-72
2023/02/24 01:29:38;;;;;;;;;10.25;9.75;;;;;22.45;36.65;100723.44;5065835;27;45940;-73
2023/02/24 01:32:05;;;;;;;;;10.50;9.25;;;;;22.44;37.17;100729.78;5067480;28;45280;-73
2023/02/24 01:34:30;;;;;;;;;12.50;10.75;;;;;22.46;36.89;100735.84;5053736;28;45773;-72
2023/02/24 01:36:56;;;;;;;;;15.00;11.00;;;;;22.43;37.00;100730.72;5069759;28;48609;-72
2023/02/24 01:39:21;;;;;;;;;16.00;14.00;;;;;22.42;36.44;100715.72;5065296;27;46076;-72
2023/02/24 01:41:49;;;;;;;;;17.50;12.00;;;;;22.41;37.07;100719.34;5074179;27;55551;-73
2023/02/24 01:44:16;;;;;;;;;9.75;9.75;;;;;22.43;36.93;100720.91;5048861;28;47063;-73
2023/02/24 01:46:47;;;;;;;;;12.50;9.75;;;;;22.41;36.87;100714.84;5071881;27;46909;-73
2023/02/24 01:49:28;;;;;;;;;14.00;11.25;;;;;22.41;37.09;100714.00;5069454;27;45835;-73
2023/02/24 01:52:09;;;;;;;;;14.25;9.00;;;;;22.40;36.44;100710.50;5071849;27;45422;-73
2023/02/24 01:54:41;;;;;;;;;13.50;10.00;;;;;22.41;36.85;100706.00;5074836;28;45700;-72
2023/02/24 01:57:08;;;;;;;;;14.50;11.00;;;;;22.36;36.56;100704.56;5072791;27;46067;-72
2023/02/24 01:59:34;;;;;;;;;10.75;8.75;;;;;22.41;36.39;100701.50;5067264;27;45496;-72
2023/02/24 02:02:02;;;;;;;;;15.75;11.75;;;;;22.40;36.39;100702.50;5071375;27;45552;-72
2023/02/24 02:04:44;;;;;;;;;11.75;9.50;;;;;22.36;36.56;100693.88;5051887;28;45562;-72
2023/02/24 02:07:12;;;;;;;;;14.00;8.50;;;;;22.39;36.85;100695.44;5071981;27;46304;-72
2023/02/24 02:09:40;;;;;;;;;12.75;11.00;;;;;22.34;36.69;100685.13;5056354;28;45500;-72
2023/02/24 02:12:06;;;;;;;;;15.25;12.00;;;;;22.32;36.84;100686.22;5058677;28;45647;-72
2023/02/24 02:14:31;;;;;;;;;11.25;11.25;;;;;22.34;36.86;100690.47;5072059;28;46018;-72
2023/02/24 02:17:15;;;;;;;;;9.50;8.75;;;;;22.36;36.35;100688.56;5058843;28;47074;-72
2023/02/24 02:20:14;;;;;;;;;10.00;8.25;;;;;22.36;36.35;100685.88;5066633;27;46184;-72
2023/02/24 02:23:22;;;;;;;;;7.75;7.75;;;;;22.34;36.84;100686.94;5053679;28;45450;-73
2023/02/24 02:26:09;;;;;;;;;10.00;9.00;;;;;22.29;36.75;100674.00;5068397;27;45394;-73
2023/02/24 02:28:55;;;;;;;;;13.25;9.50;;;;;22.33;36.59;100678.13;5075846;27;45443;-73
2023/02/24 02:31:35;;;;;;;;;16.75;10.50;;;;;22.28;36.83;100666.97;5076909;27;45500;-73
2023/02/24 02:34:12;;;;;;;;;14.25;7.75;;;;;22.31;36.95;100664.06;5074766;27;45473;-74
2023/02/24 02:36:54;;;;;;;;;10.50;9.00;;;;;22.32;36.77;100670.22;5074412;28;45268;-73
2023/02/24 02:39:29;;;;;;;;;10.25;8.75;;;;;22.32;36.40;100659.56;5055969;28;46767;-72
2023/02/24 02:42:23;;;;;;;;;15.00;11.50;;;;;22.31;36.78;100653.41;5091186;27;45852;-72
2023/02/24 02:45:12;;;;;;;;;12.75;12.50;;;;;22.30;36.48;100654.34;5075381;28;45324;-72
2023/02/24 02:47:57;;;;;;;;;9.50;9.50;;;;;22.27;36.51;100654.59;5065981;27;45402;-72
2023/02/24 02:50:28;;;;;;;;;11.25;10.25;;;;;22.29;37.00;100654.47;5054727;28;45902;-73
2023/02/24 02:53:09;;;;;;;;;16.75;12.50;;;;;22.27;36.61;100651.06;5068971;28;45814;-73
2023/02/24 02:55:50;;;;;;;;;13.50;10.00;;;;;22.25;36.51;100653.81;5070152;28;45464;-73
2023/02/24 02:58:20;;;;;;;;;9.50;8.00;;;;;22.26;36.35;100652.88;5072776;27;45262;-73
2023/02/24 03:00:57;;;;;;;;;15.75;12.25;;;;;22.23;36.91;100650.44;5067565;28;45465;-73
2023/02/24 03:03:25;;;;;;;;;10.50;8.25;;;;;22.25;36.95;100639.66;5073830;27;45465;-73
2023/02/24 03:05:58;;;;;;;;;12.00;9.00;;;;;22.25;36.73;100644.97;5068180;28;45327;-73
2023/02/24 03:08:28;;;;;;;;;19.25;13.25;;;;;22.23;36.72;100641.59;5075547;27;45380;-73
2023/02/24 03:10:57;;;;;;;;;10.75;10.00;;;;;22.18;36.54;100634.78;5075015;28;45626;-73
2023/02/24 03:13:26;;;;;;;;;15.25;11.50;;;;;22.23;36.51;100639.78;5073084;27;45490;-72
2023/02/24 03:15:53;;;;;;;;;12.00;9.50;;;;;22.21;36.66;100648.88;5077182;27;45371;-73
2023/02/24 03:18:27;;;;;;;;;14.00;11.75;;;;;22.18;36.53;100636.59;5068664;27;45591;-73
2023/02/24 03:21:18;;;;;;;;;11.25;9.50;;;;;22.20;36.99;100642.66;5055984;28;47885;-73
2023/02/24 03:23:48;;;;;;;;;12.50;12.25;;;;;22.18;36.85;100648.09;5066043;28;46065;-73
2023/02/24 03:26:36;;;;;;;;;12.00;8.50;;;;;22.19;36.44;100649.81;5071341;28;45469;-73
2023/02/24 03:29:17;;;;;;;;;9.75;8.50;;;;;22.16;36.74;100647.38;5063530;28;45271;-72
2023/02/24 03:31:49;;;;;;;;;15.75;11.25;;;;;22.17;36.54;100638.44;5068420;28;46959;-72
2023/02/24 03:34:29;;;;;;;;;9.50;9.25;;;;;22.15;36.61;100643.03;5051975;28;46080;-72
2023/02/24 03:36:55;;;;;;;;;16.00;10.75;;;;;22.15;36.82;100648.38;5050919;28;45517;-72
2023/02/24 03:39:21;;;;;;;;;12.75;10.00;;;;;22.13;36.63;100641.44;5065780;28;45543;-72
2023/02/24 03:41:57;;;;;;;;;13.00;10.00;;;;;22.15;36.65;100644.84;5051953;28;46962;-73
2023/02/24 03:44:25;;;;;;;;;14.75;9.75;;;;;22.15;36.68;100634.16;5064206;28;45312;-72
2023/02/24 03:46:53;;;;;;;;;16.00;11.50;;;;;22.09;36.41;100624.84;5060795;28;45596;-72
2023/02/24 03:49:19;;;;;;;;;14.25;10.00;;;;;22.16;36.63;100635.88;5062231;27;45532;-73
2023/02/24 03:52:20;;;;;;;;;11.00;10.75;;;;;22.15;36.92;100636.84;5071066;27;45516;-73
2023/02/24 03:55:11;;;;;;;;;13.75;9.50;;;;;22.12;36.68;100629.09;5074146;28;45679;-73
2023/02/24 03:57:53;;;;;;;;;10.00;8.25;;;;;22.15;36.71;100626.19;5067392;27;45541;-72
2023/02/24 04:00:35;;;;;;;;;14.00;10.00;;;;;22.12;36.44;100621.94;5064561;27;45400;-73
2023/02/24 04:03:10;;;;;;;;;11.00;10.00;;;;;22.13;36.67;100609.47;5066058;27;45429;-73
2023/02/24 04:05:50;;;;;;;;;15.25;13.25;;;;;22.11;36.29;100603.41;5072253;28;45283;-73
2023/02/24 04:08:16;;;;;;;;;13.50;9.50;;;;;22.03;36.73;100589.81;5057665;28;45450;-73
2023/02/24 04:10:53;;;;;;;;;11.50;9.75;;;;;22.13;36.49;100604.13;5070792;28;45459;-73
2023/02/24 04:13:21;;;;;;;;;13.50;12.00;;;;;22.07;36.82;100591.28;5067102;27;45733;-73
2023/02/24 04:15:51;;;;;;;;;10.25;8.75;;;;;22.11;36.92;100595.41;5067604;27;45372;-73
2023/02/24 04:18:18;;;;;;;;;12.00;10.50;;;;;22.11;36.80;100595.41;5066896;27;45505;-73
2023/02/24 04:20:51;;;;;;;;;14.25;11.00;;;;;22.05;36.52;100579.91;5046173;28;45511;-73
2023/02/24 04:23:25;;;;;;;;;10.75;9.00;;;;;22.04;36.87;100573.72;5076471;28;45679;-73
2023/02/24 04:25:52;;;;;;;;;16.50;10.00;;;;;22.00;36.42;100572.25;5046452;28;45866;-73
2023/02/24 04:28:20;;;;;;;;;10.25;9.75;;;;;22.04;36.38;100567.53;5057968;28;45545;-73
2023/02/24 04:30:49;;;;;;;;;9.25;8.75;;;;;22.08;36.33;100572.53;5067989;28;45480;-73
2023/02/24 04:33:15;;;;;;;;;12.75;11.50;;;;;22.06;36.85;100568.25;5056794;28;47360;-73
2023/02/24 04:35:44;;;;;;;;;14.50;9.00;;;;;22.07;36.43;100564.66;5070798;28;45382;-73
2023/02/24 04:38:09;;;;;;;;;12.00;11.00;;;;;22.04;36.23;100563.06;5072389;28;45564;-73
2023/02/24 04:40:35;;;;;;;;;11.50;7.75;;;;;22.06;36.52;100563.81;5046226;28;45786;-73
2023/02/24 04:43:01;;;;;;;;;11.75;9.25;;;;;22.05;37.08;100556.78;5075649;27;47674;-73
2023/02/24 04:45:29;;;;;;;;;8.00;8.00;;;;;22.02;37.03;100557.00;5055714;27;45680;-73
2023/02/24 04:48:11;;;;;;;;;10.75;8.75;;;;;22.04;36.77;100563.06;5073847;27;45508;-73
2023/02/24 04:50:38;;;;;;;;;13.00;11.50;;;;;21.98;36.58;100550.22;5071388;27;45430;-73
2023/02/24 04:53:08;;;;;;;;;10.00;7.25;;;;;22.03;36.25;100548.06;5066455;27;45234;-73
2023/02/24 04:55:39;;;;;;;;;13.25;11.75;;;;;22.04;37.14;100548.88;5073225;28;45425;-73
2023/02/24 04:58:11;;;;;;;;;11.25;8.00;;;;;22.00;36.35;100543.78;5072866;27;45407;-73
2023/02/24 05:00:39;;;;;;;;;13.00;10.75;;;;;21.98;36.57;100547.56;5075521;27;45435;-73
2023/02/24 05:03:05;;;;;;;;;13.00;11.25;;;;;22.00;36.74;100548.28;5075989;27;47081;-73
2023/02/24 05:05:32;;;;;;;;;12.50;11.25;;;;;22.00;36.19;100548.28;5066267;28;45332;-73
2023/02/24 05:08:06;;;;;;;;;9.25;6.75;;;;;22.00;36.51;100562.44;5057227;28;45465;-73
2023/02/24 05:10:43;;;;;;;;;10.00;9.25;;;;;22.00;36.40;100556.28;5071363;27;45496;-73
2023/02/24 05:13:12;;;;;;;;;9.25;8.50;;;;;22.00;36.81;100564.28;5070310;27;45779;-73
2023/02/24 05:15:40;;;;;;;;;11.25;9.50;;;;;21.93;36.66;100550.56;5067771;28;45481;-73
2023/02/24 05:18:07;;;;;;;;;8.50;7.50;;;;;21.98;36.31;100553.72;5077702;27;45326;-73
2023/02/24 05:23:30;;;;;;;;;11.25;10.25;;;;;21.97;36.78;100557.38;5073902;27;45400;-73
2023/02/24 05:26:00;;;;;;;;;12.00;9.25;;;;;21.96;36.74;100558.34;5072261;28;45834;-73
2023/02/24 05:28:30;;;;;;;;;12.50;9.50;;;;;21.98;36.41;100558.22;5074469;27;45496;-73
2023/02/24 05:31:04;;;;;;;;;13.50;9.25;;;;;21.94;36.65;100552.28;5075024;28;45422;-73
2023/02/24 05:33:30;;;;;;;;;10.25;9.50;;;;;21.95;36.77;100545.13;5075525;27;45489;-73
2023/02/24 05:35:55;;;;;;;;;17.25;10.75;;;;;21.92;36.36;100543.56;5073904;27;45287;-73
2023/02/24 05:38:21;;;;;;;;;9.00;9.00;;;;;21.95;36.77;100547.78;5073205;27;58500;-74
2023/02/24 05:40:47;;;;;;;;;13.25;13.00;;;;;21.95;36.50;100542.47;5062139;27;45977;-73
2023/02/24 05:43:17;;;;;;;;;11.50;9.00;;;;;21.93;36.43;100541.72;5064892;27;45289;-73
2023/02/24 05:45:46;;;;;;;;;16.75;11.00;;;;;21.94;36.43;100544.28;5080126;27;45485;-74
2023/02/24 05:48:15;;;;;;;;;13.50;11.00;;;;;21.89;36.80;100535.81;5047367;28;45487;-72
2023/02/24 05:50:44;;;;;;;;;11.00;10.25;;;;;21.87;36.55;100532.41;5065049;27;45795;-72
2023/02/24 05:53:11;;;;;;;;;15.00;11.00;;;;;21.91;36.76;100533.03;5060984;27;46048;-71
2023/02/24 05:55:36;;;;;;;;;12.00;10.25;;;;;21.86;36.16;100529.88;5073774;27;45766;-73
2023/02/24 05:58:06;;;;;;;;;13.50;10.00;;;;;21.90;36.07;100532.19;5071956;27;45477;-74
2023/02/24 06:00:32;;;;;;;;;11.00;9.00;;;;;21.91;36.66;100525.03;5067397;27;45506;-73
2023/02/24 06:03:07;;;;;;;;;13.25;12.50;;;;;21.89;36.66;100518.97;5062826;28;45260;-74
2023/02/24 06:05:32;;;;;;;;;13.75;12.00;;;;;21.88;36.76;100518.09;5070146;27;47351;-73
2023/02/24 06:08:04;;;;;;;;;12.75;9.50;;;;;21.87;36.50;100516.44;5067032;28;45806;-74
2023/02/24 06:10:32;;;;;;;;;10.00;7.75;;;;;21.88;36.42;100517.25;5072688;27;45296;-74
2023/02/24 06:12:59;;;;;;;;;11.00;10.00;;;;;21.85;36.57;100514.84;5066541;28;46069;-73
2023/02/24 06:15:25;;;;;;;;;10.50;10.00;;;;;21.87;36.25;100512.91;5071630;27;45310;-73
2023/02/24 06:17:51;;;;;;;;;12.50;11.25;;;;;21.88;36.65;100511.94;5072161;27;45496;-72
2023/02/24 06:20:16;;;;;;;;;11.50;11.50;;;;;21.87;36.60;100516.44;5067019;27;65230;-73
2023/02/24 06:22:41;;;;;;;;;10.00;8.50;;;;;21.87;36.37;100511.09;5074963;27;46167;-73
2023/02/24 06:25:10;;;;;;;;;12.50;11.00;;;;;21.82;36.58;100507.09;5070454;27;69011;-73
2023/02/24 06:27:37;;;;;;;;;9.75;7.75;;;;;21.80;36.43;100502.72;5073917;27;45541;-73
2023/02/24 06:30:09;;;;;;;;;10.00;8.50;;;;;21.82;36.75;100497.28;5067237;27;45437;-73
2023/02/24 06:32:34;;;;;;;;;9.75;9.50;;;;;21.83;36.29;100508.78;5057077;27;48015;-72
2023/02/24 06:35:00;;;;;;;;;11.50;10.50;;;;;21.85;36.78;100507.72;5052827;28;45375;-73
2023/02/24 06:37:25;;;;;;;;;13.00;9.25;;;;;21.82;36.18;100497.28;5053969;27;45409;-71
2023/02/24 06:39:51;;;;;;;;;15.00;11.00;;;;;21.82;36.37;100497.28;5070452;28;45452;-73
2023/02/24 06:42:16;;;;;;;;;8.75;8.75;;;;;21.80;36.35;100505.41;5053799;28;47223;-74
2023/02/24 06:44:42;;;;;;;;;13.00;9.00;;;;;21.84;36.41;100511.31;5070130;27;50491;-74
2023/02/24 06:47:11;;;;;;;;;10.50;7.50;;;;;21.81;36.54;100508.91;5069571;27;45220;-74
2023/02/24 06:49:37;;;;;;;;;16.00;12.00;;;;;21.78;36.13;100511.81;5062772;28;45309;-74
2023/02/24 06:52:02;;;;;;;;;12.75;11.25;;;;;21.76;36.13;100505.75;5073981;27;46122;-75
2023/02/24 06:54:29;;;;;;;;;12.50;10.50;;;;;21.78;36.21;100518.00;5071413;27;45189;-75
2023/02/24 06:56:56;;;;;;;;;13.50;10.00;;;;;21.71;36.19;100503.44;5063186;27;45487;-76
2023/02/24 06:59:27;;;;;;;;;13.00;8.25;;;;;21.75;36.47;100515.56;5077740;27;45623;-76
2023/02/24 07:01:53;;;;;;;;;12.50;10.75;;;;;21.76;36.30;100527.91;5058979;28;47058;-76
2023/02/24 07:04:19;;;;;;;;;11.75;9.75;;;;;21.78;36.89;100523.31;5060639;28;45213;-75
2023/02/24 07:06:51;;;;;;;;;14.00;9.00;;;;;21.78;36.68;100535.78;5059929;28;45564;-75
2023/02/24 07:09:20;;;;;;;;;13.25;11.25;;;;;21.75;37.17;100530.69;5094197;27;45506;-75
2023/02/24 07:11:51;;;;;;;;;9.75;9.25;;;;;21.80;36.71;100534.69;5058124;27;46734;-71
2023/02/24 07:14:20;;;;;;;;;10.75;9.00;;;;;21.83;37.45;100532.75;5057900;28;45994;-70
2023/02/24 07:16:49;;;;;;;;;9.25;8.75;;;;;21.80;37.45;100534.69;5065037;27;45415;-72
2023/02/24 07:19:15;;;;;;;;;12.00;7.75;;;;;21.89;37.66;100545.63;5062263;28;45592;-73
2023/02/24 07:21:45;;;;;;;;;14.25;9.25;;;;;21.91;37.90;100539.19;5065933;27;48634;-74
2023/02/24 07:24:13;;;;;;;;;9.75;9.50;;;;;21.92;37.74;100529.38;5065654;27;45635;-72
2023/02/24 07:26:41;;;;;;;;;10.75;10.50;;;;;21.98;37.49;100539.56;5056009;28;45380;-72
2023/02/24 07:29:12;;;;;;;;;13.25;10.50;;;;;22.00;37.95;100543.78;5081697;27;45314;-72
2023/02/24 07:31:38;;;;;;;;;13.50;11.25;;;;;22.00;38.08;100529.63;5073863;27;56962;-72
2023/02/24 07:34:05;;;;;;;;;12.50;10.50;;;;;22.04;37.58;100536.41;5076858;27;45471;-72
2023/02/24 07:36:47;;;;;;;;;15.50;10.25;;;;;22.00;37.76;100533.13;5049889;28;44801;-72
2023/02/24 07:39:14;;;;;;;;;11.25;10.00;;;;;22.08;37.95;100543.22;5062032;28;45300;-73
2023/02/24 07:41:45;;;;;;;;;14.00;9.75;;;;;22.10;37.77;100538.59;5065119;28;45359;-71
2023/02/24 07:44:11;;;;;;;;;12.75;10.50;;;;;22.11;37.66;100539.44;5061785;28;45485;-71
2023/02/24 07:46:37;;;;;;;;;11.75;10.75;;;;;22.14;37.90;100534.72;5068287;28;45755;-74
2023/02/24 07:49:03;;;;;;;;;11.25;9.50;;;;;22.18;37.51;100535.31;5066095;27;45996;-72
2023/02/24 07:51:28;;;;;;;;;9.25;8.00;;;;;22.18;37.73;100533.50;5070737;28;45523;-72
2023/02/24 07:53:57;;;;;;;;;11.00;8.25;;;;;22.16;38.23;100519.44;5068798;28;45455;-72
2023/02/24 07:56:26;;;;;;;;;14.00;9.50;;;;;22.10;38.01;100506.63;5067131;28;45434;-71
2023/02/24 07:58:58;;;;;;;;;12.00;10.50;;;;;22.25;37.60;100525.03;5054871;28;45540;-71
2023/02/24 08:01:27;;;;;;;;;14.25;10.00;;;;;22.27;37.39;100531.94;5063145;27;46521;-71
2023/02/24 08:04:00;;;;;;;;;13.50;10.00;;;;;22.27;37.88;100523.94;5067665;28;45398;-71
2023/02/24 08:06:54;;;;;;;;;9.00;7.25;;;;;22.29;37.59;100531.84;5060938;28;45494;-71
2023/02/24 08:09:19;;;;;;;;;13.75;8.25;;;;;22.30;37.72;100529.03;5070224;27;45568;-71
2023/02/24 08:11:53;;;;;;;;;8.75;8.75;;;;;22.33;37.74;100527.97;5071768;28;45931;-70
2023/02/24 08:14:19;;;;;;;;;9.75;9.75;;;;;22.34;37.87;100524.31;5073051;28;45777;-71
2023/02/24 08:16:47;;;;;;;;;10.00;8.25;;;;;22.30;37.29;100520.22;5077496;27;45509;-71
2023/02/24 08:19:19;;;;;;;;;11.00;8.50;;;;;22.32;37.70;100524.44;5052859;28;45599;-71
2023/02/24 08:21:49;;;;;;;;;17.25;10.00;;;;;22.36;37.43;100523.25;5071833;28;46217;-71
2023/02/24 08:24:22;;;;;;;;;10.25;8.50;;;;;22.37;37.38;100518.75;5051766;28;45814;-71
2023/02/24 08:27:03;;;;;;;;;15.25;10.50;;;;;22.41;37.22;100522.84;5068353;27;45511;-71
2023/02/24 08:29:49;;;;;;;;;10.00;9.00;;;;;22.44;37.10;100527.13;5068830;27;45437;-71
2023/02/24 08:32:24;;;;;;;;;7.75;6.00;;;;;22.46;37.71;100519.84;5056670;28;47789;-71
2023/02/24 08:34:55;;;;;;;;;11.25;8.75;;;;;22.36;37.53;100501.91;5073341;27;45504;-69
2023/02/24 08:37:20;;;;;;;;;11.50;11.00;;;;;22.39;37.05;100502.63;5073853;27;45315;-71
2023/02/24 08:39:46;;;;;;;;;11.25;11.00;;;;;22.43;36.80;100506.75;5052383;27;45728;-70
2023/02/24 08:42:13;;;;;;;;;18.00;15.25;;;;;22.34;36.60;100501.16;5057460;28;46883;-70
2023/02/24 08:44:39;;;;;;;;;14.75;12.50;;;;;22.33;36.48;100496.81;5061486;27;46014;-70
2023/02/24 08:47:06;;;;;;;;;17.25;13.75;;;;;22.35;35.89;100502.03;5078728;27;45282;-73
2023/02/24 08:49:32;;;;;;;;;26.25;21.00;;;;;22.33;35.87;100504.81;5068488;27;45566;-71
2023/02/24 08:52:01;;;;;;;;;21.50;16.00;;;;;22.31;36.04;100500.56;5076772;28;63174;-71
2023/02/24 08:54:30;;;;;;;;;21.00;18.75;;;;;22.28;35.14;100492.84;5079734;27;45290;-75
2023/02/24 08:57:01;;;;;;;;;20.75;17.00;;;;;22.27;35.12;100491.97;5073373;27;45395;-71
2023/02/24 09:00:08;;;;;;;;;19.75;15.00;;;;;22.26;35.24;100495.59;5069330;28;45540;-71
2023/02/24 09:02:17;;;;;;;;;21.00;13.50;;;;;22.25;35.03;100496.53;5066537;27;46169;-72
2023/02/24 09:04:54;;;;;;;;;16.50;14.50;;;;;22.18;34.26;100490.00;5075383;28;45820;-71
2023/02/24 09:07:25;;;;;;;;;18.75;16.00;;;;;22.19;34.88;100492.56;5060095;28;45522;-71
2023/02/24 09:09:55;;;;;;;;;22.00;17.75;;;;;22.17;34.23;100486.50;5080658;27;45556;-72
2023/02/24 09:12:23;;;;;;;;;20.75;15.00;;;;;22.16;34.69;100490.13;5072205;27;47027;-71
2023/02/24 09:14:56;;;;;;;;;20.00;15.00;;;;;22.17;34.47;100499.00;5067425;28;46018;-72
2023/02/24 09:17:48;;;;;;;;;25.50;19.25;;;;;22.16;34.06;100505.28;5070901;28;45212;-74
2023/02/24 09:22:56;;;;;;;;;23.00;18.00;;;;;22.11;34.00;100505.63;5072368;27;45462;-71
2023/02/24 09:25:39;;;;;;;;;22.00;15.75;;;;;22.08;34.39;100497.03;5061789;28;46030;-76
2023/02/24 09:28:17;;;;;;;;;19.50;15.25;;;;;22.12;34.19;100506.50;5068032;27;45332;-74
2023/02/24 09:30:52;;;;;;;;;16.50;12.75;;;;;22.11;34.60;100494.13;5065649;27;45438;-75
2023/02/24 09:33:37;;;;;;;;;13.75;11.50;;;;;22.10;34.52;100501.28;5071013;27;45541;-75
2023/02/24 09:36:27;;;;;;;;;14.25;11.50;;;;;22.16;34.65;100499.94;5060821;28;45938;-74
2023/02/24 09:44:54;;;;;;;;;14.00;12.00;;;;;22.23;35.13;100506.50;5059054;27;45234;-83
2023/02/24 09:47:55;;;;;;;;;13.00;9.75;;;;;22.34;34.96;100505.66;5086088;27;45675;-75
2023/02/24 09:50:23;;;;;;;;;13.00;9.50;;;;;22.36;35.00;100503.72;5065994;28;45740;-76
2023/02/24 09:52:53;;;;;;;;;13.75;12.75;;;;;22.37;35.52;100502.75;5072679;27;45228;-74
2023/02/24 09:55:28;;;;;;;;;11.25;6.00;;;;;22.44;35.34;100500.44;5068545;27;45669;-78
2023/02/24 10:01:19;;;;;;;;;8.75;8.00;;;;;22.49;35.66;100493.75;5065246;28;45383;-81
2023/02/24 10:03:50;;;;;;;;;11.00;9.25;;;;;22.53;35.73;100489.88;5074623;27;45478;-77
2023/02/24 10:06:25;;;;;;;;;8.75;8.75;;;;;22.55;35.94;100482.56;5075381;27;45700;-85
2023/02/24 10:09:10;;;;;;;;;7.50;6.00;;;;;22.61;35.74;100475.91;5078481;28;45628;-88
2023/02/24 10:11:52;;;;;;;;;8.75;8.75;;;;;22.61;36.03;100470.59;5071306;28;45443;-76
2023/02/24 10:14:37;;;;;;;;;7.75;7.25;;;;;22.69;36.29;100469.94;5077664;28;45570;-82
2023/02/24 10:17:29;;;;;;;;;9.00;7.00;;;;;22.75;35.85;100464.09;5094295;27;46697;-92
2023/02/24 10:20:12;;;;;;;;;10.00;7.00;;;;;22.78;36.30;100455.00;5063286;28;45855;-78
2023/02/24 10:23:08;;;;;;;;;10.75;9.00;;;;;22.84;35.85;100455.34;5073482;27;45531;-72
2023/02/24 10:25:54;;;;;;;;;8.75;5.50;;;;;22.86;36.46;100445.38;5060708;28;46271;-72
2023/02/24 10:28:34;;;;;;;;;9.00;9.00;;;;;22.88;36.21;100451.44;5067219;28;47325;-71
2023/02/24 10:31:29;;;;;;;;;9.25;7.25;;;;;22.90;35.78;100440.66;5072943;27;45728;-72
2023/02/24 10:34:08;;;;;;;;;7.25;6.00;;;;;22.87;35.77;100435.56;5079934;27;45777;-73
2023/02/24 10:36:34;;;;;;;;;11.75;7.25;;;;;22.88;35.96;100438.09;5059292;28;47777;-73
2023/02/24 10:39:14;;;;;;;;;9.00;6.00;;;;;22.92;36.25;100446.69;5073334;28;48748;-73
2023/02/24 10:42:14;;;;;;;;;11.50;6.75;;;;;22.92;35.87;100441.34;5078355;27;45858;-71
2023/02/24 10:44:50;;;;;;;;;10.75;7.00;;;;;22.91;35.68;100442.31;5074515;28;45473;-80
2023/02/24 10:47:18;;;;;;;;;8.25;6.00;;;;;22.91;35.47;100439.66;5079538;28;45642;-79
2023/02/24 10:49:58;;;;;;;;;7.75;6.50;;;;;22.91;35.86;100440.53;5072894;27;45253;-83
2023/02/24 10:55:37;;;;;;;;;5.00;5.00;;;;;22.90;35.50;100435.31;5071412;28;45519;-78
2023/02/24 10:58:05;;;;;;;;;8.25;6.25;;;;;22.89;35.75;100431.78;5058070;28;45970;-81
2023/02/24 11:01:19;;;;;;;;;6.25;4.00;;;;;22.88;35.47;100426.59;5062770;28;47180;-84
2023/02/24 11:03:59;;;;;;;;;6.75;6.00;;;;;22.85;35.52;100424.16;5072966;28;45446;-88
2023/02/24 11:06:40;;;;;;;;;5.00;5.00;;;;;22.82;35.04;100414.59;5080898;28;45275;-83
2023/02/24 11:09:20;;;;;;;;;5.25;3.75;;;;;22.88;35.71;100416.75;5046918;28;45381;-78
2023/02/24 11:17:55;;;;;;;;;4.75;4.75;;;;;22.87;35.09;100404.38;5069815;27;45465;-78
2023/02/24 11:20:28;;;;;;;;;4.00;4.00;;;;;22.84;35.20;100393.13;5092592;28;44846;-80
2023/02/24 11:22:54;;;;;;;;;6.75;4.50;;;;;22.78;35.45;100378.47;5080577;27;45716;-77
2023/02/24 11:25:32;;;;;;;;;5.00;4.75;;;;;22.90;35.71;100400.63;5064631;27;45193;-79
2023/02/24 11:27:57;;;;;;;;;6.00;5.00;;;;;22.90;35.65;100404.13;5071311;28;45657;-78
2023/02/24 11:30:37;;;;;;;;;4.25;3.25;;;;;22.91;35.39;100392.50;5053148;28;51071;-83
2023/02/24 11:33:16;;;;;;;;;12.50;8.75;;;;;22.84;35.50;100377.09;5070821;27;45650;-78
2023/02/24 11:35:57;;;;;;;;;16.50;13.00;;;;;22.86;34.95;100381.34;5076267;27;46014;-88
2023/02/24 11:38:35;;;;;;;;;14.25;12.25;;;;;22.77;34.73;100371.47;5067518;27;45312;-76
2023/02/24 11:41:11;;;;;;;;;9.00;8.75;;;;;22.68;35.08;100362.41;5077453;28;45595;-76
2023/02/24 11:43:39;;;;;;;;;7.00;7.00;;;;;22.71;35.52;100361.28;5075291;28;46222;-78
2023/02/24 11:46:12;;;;;;;;;7.25;6.00;;;;;22.72;35.04;100350.50;5070502;28;49146;-80
2023/02/24 11:48:42;;;;;;;;;7.25;5.50;;;;;22.73;35.17;100351.34;5062554;27;45634;-76
2023/02/24 11:51:51;;;;;;;;;8.50;4.00;;;;;22.69;35.23;100342.75;5069977;27;45586;-74
2023/02/24 11:54:22;;;;;;;;;7.50;5.00;;;;;22.74;35.48;100343.22;5069245;28;46277;-77
2023/02/24 11:56:53;;;;;;;;;23.25;16.25;;;;;22.76;35.18;100345.75;5074749;27;45264;-73
2023/02/24 11:59:27;;;;;;;;;32.75;27.25;;;;;22.69;34.31;100333.91;5071127;28;45553;-77
2023/02/24 12:02:06;;;;;;;;;31.50;23.75;;;;;22.59;33.39;100328.47;5068421;27;45287;-73
2023/02/24 12:04:36;;;;;;;;;35.75;28.75;;;;;22.45;32.97;100328.81;5067439;27;48376;-73
2023/02/24 12:07:04;;;;;;;;;34.75;25.75;;;;;22.33;33.24;100315.53;5073373;27;45334;-80